createdAt,value
2023-01-29T00:00:33.801Z,12.33
2023-01-29T00:03:00.315Z,10.53
2023-01-29T00:05:28.446Z,11.87
2023-01-29T00:07:56.938Z,11.43
2023-01-29T00:10:24.962Z,11.53
2023-01-29T00:12:51.441Z,13.77
2023-01-29T00:15:18.134Z,11.63
2023-01-29T00:17:44.566Z,11.33
2023-01-29T00:20:11.847Z,10.70
2023-01-29T00:22:38.246Z,11.47
2023-01-29T00:25:05.046Z,11.63
2023-01-29T00:27:31.568Z,11.70
2023-01-29T00:29:58.233Z,11.00
2023-01-29T00:32:24.806Z,10.60
2023-01-29T00:34:51.261Z,14.30
2023-01-29T00:37:18.036Z,14.87
2023-01-29T00:39:48.204Z,11.40
2023-01-29T00:42:14.973Z,11.15
2023-01-29T00:44:41.453Z,10.43
2023-01-29T00:47:07.937Z,11.33
2023-01-29T00:49:34.516Z,11.93
2023-01-29T00:52:01.194Z,11.70
2023-01-29T00:54:27.606Z,11.23
2023-01-29T00:56:56.401Z,9.73
2023-01-29T00:59:22.917Z,10.33
2023-01-29T01:01:49.493Z,10.87
2023-01-29T01:04:16.231Z,10.77
2023-01-29T01:06:42.766Z,10.10
2023-01-29T01:09:10.481Z,11.10
2023-01-29T01:11:36.823Z,10.47
2023-01-29T01:14:03.362Z,9.80
2023-01-29T01:16:29.829Z,8.93
2023-01-29T01:18:56.488Z,8.70
2023-01-29T01:21:23.018Z,8.30
2023-01-29T01:23:49.438Z,7.53
2023-01-29T01:26:15.860Z,8.47
2023-01-29T01:28:42.460Z,8.30
2023-01-29T01:31:11.341Z,7.13
2023-01-29T01:33:38.465Z,9.67
2023-01-29T01:36:06.381Z,7.50
2023-01-29T01:38:33.177Z,8.20
2023-01-29T01:40:59.586Z,10.83
2023-01-29T01:43:26.901Z,11.07
2023-01-29T01:45:53.618Z,11.27
2023-01-29T01:48:24.848Z,11.00
2023-01-29T01:51:00.549Z,11.93
2023-01-29T01:53:38.952Z,9.80
2023-01-29T01:56:09.444Z,11.07
2023-01-29T01:58:43.695Z,10.45
2023-01-29T02:01:11.330Z,9.80
2023-01-29T02:03:49.710Z,10.60
2023-01-29T02:06:16.205Z,9.63
2023-01-29T02:08:52.730Z,9.83
2023-01-29T02:11:20.343Z,8.77
2023-01-29T02:13:47.296Z,9.50
2023-01-29T02:16:14.050Z,7.60
2023-01-29T02:18:40.859Z,8.77
2023-01-29T02:21:40.489Z,8.30
2023-01-29T02:24:35.221Z,7.80
2023-01-29T02:27:14.922Z,7.30
2023-01-29T02:29:53.380Z,6.63
2023-01-29T02:32:28.424Z,7.57
2023-01-29T02:35:09.118Z,8.17
2023-01-29T02:37:50.034Z,8.10
2023-01-29T02:43:28.977Z,7.37
2023-01-29T02:46:20.401Z,7.23
2023-01-29T02:48:59.587Z,8.87
2023-01-29T02:51:34.398Z,9.10
2023-01-29T02:54:11.443Z,10.40
2023-01-29T02:56:51.912Z,11.03
2023-01-29T02:59:25.929Z,6.28
2023-01-29T03:02:05.414Z,8.33
2023-01-29T03:04:36.673Z,9.57
2023-01-29T03:07:10.353Z,8.97
2023-01-29T03:09:42.769Z,9.07
2023-01-29T03:12:26.687Z,8.47
2023-01-29T03:14:53.303Z,8.50
2023-01-29T03:17:26.251Z,7.60
2023-01-29T03:19:53.213Z,8.83
2023-01-29T03:22:20.802Z,9.17
2023-01-29T03:24:51.952Z,9.10
2023-01-29T03:27:23.278Z,8.70
2023-01-29T03:29:52.978Z,8.47
2023-01-29T03:32:21.255Z,9.03
2023-01-29T03:34:58.711Z,8.50
2023-01-29T03:37:46.515Z,9.03
2023-01-29T03:40:15.325Z,9.20
2023-01-29T03:43:14.130Z,8.97
2023-01-29T03:46:02.174Z,7.93
2023-01-29T03:48:37.117Z,9.43
2023-01-29T03:51:06.652Z,9.37
2023-01-29T03:53:47.646Z,8.27
2023-01-29T03:59:07.009Z,8.50
2023-01-29T04:01:45.199Z,8.60
2023-01-29T04:04:17.122Z,8.87
2023-01-29T04:06:47.607Z,8.70
2023-01-29T04:09:20.452Z,8.50
2023-01-29T04:11:54.376Z,7.67
2023-01-29T04:14:22.070Z,7.83
2023-01-29T04:16:53.370Z,8.93
2023-01-29T04:19:21.065Z,8.90
2023-01-29T04:21:50.679Z,7.93
2023-01-29T04:24:17.634Z,8.67
2023-01-29T04:26:51.325Z,8.27
2023-01-29T04:29:30.435Z,8.87
2023-01-29T04:32:18.540Z,8.40
2023-01-29T04:34:51.080Z,8.17
2023-01-29T04:37:36.058Z,8.60
2023-01-29T04:40:15.122Z,7.47
2023-01-29T04:42:51.177Z,7.87
2023-01-29T04:45:39.494Z,7.30
2023-01-29T04:48:11.737Z,7.77
2023-01-29T04:50:44.306Z,8.53
2023-01-29T04:53:23.461Z,7.57
2023-01-29T04:55:56.837Z,7.37
2023-01-29T04:58:34.872Z,7.93
2023-01-29T05:01:05.980Z,8.30
2023-01-29T05:03:34.059Z,8.13
2023-01-29T05:06:02.104Z,8.27
2023-01-29T05:08:31.246Z,8.40
2023-01-29T05:11:00.139Z,7.73
2023-01-29T05:13:30.097Z,9.00
2023-01-29T05:16:25.664Z,8.67
2023-01-29T05:18:52.356Z,7.80
2023-01-29T05:21:19.520Z,7.80
2023-01-29T05:23:46.015Z,8.17
2023-01-29T05:26:12.399Z,9.17
2023-01-29T05:28:39.264Z,8.33
2023-01-29T05:31:06.113Z,7.83
2023-01-29T05:33:32.647Z,8.00
2023-01-29T05:36:00.338Z,7.80
2023-01-29T05:38:26.873Z,7.60
2023-01-29T05:40:53.615Z,8.20
2023-01-29T05:43:23.018Z,8.27
2023-01-29T05:46:00.444Z,8.40
2023-01-29T05:48:28.957Z,9.30
2023-01-29T05:51:00.870Z,8.70
2023-01-29T05:53:29.478Z,7.83
2023-01-29T05:55:56.081Z,7.93
2023-01-29T05:58:23.139Z,7.53
2023-01-29T06:00:49.717Z,7.53
2023-01-29T06:03:16.074Z,7.93
2023-01-29T06:05:42.523Z,6.97
2023-01-29T06:08:09.100Z,7.53
2023-01-29T06:10:35.561Z,7.73
2023-01-29T06:13:02.593Z,9.33
2023-01-29T06:15:29.129Z,8.70
2023-01-29T06:17:57.296Z,8.10
2023-01-29T06:20:24.921Z,8.23
2023-01-29T06:22:51.651Z,8.00
2023-01-29T06:25:19.655Z,7.87
2023-01-29T06:27:46.260Z,8.37
2023-01-29T06:30:13.302Z,8.07
2023-01-29T06:32:39.940Z,8.70
2023-01-29T06:35:06.946Z,8.03
2023-01-29T06:37:33.470Z,8.00
2023-01-29T06:39:59.864Z,7.80
2023-01-29T06:42:26.624Z,9.30
2023-01-29T06:44:54.515Z,8.40
2023-01-29T06:47:21.186Z,8.10
2023-01-29T06:49:47.599Z,9.03
2023-01-29T06:52:14.248Z,9.43
2023-01-29T06:54:40.834Z,8.37
2023-01-29T06:57:07.545Z,9.60
2023-01-29T06:59:34.064Z,8.37
2023-01-29T07:02:00.517Z,8.60
2023-01-29T07:04:26.993Z,8.23
2023-01-29T07:06:53.714Z,8.43
2023-01-29T07:09:20.218Z,9.23
2023-01-29T07:11:46.708Z,8.93
2023-01-29T07:14:13.140Z,9.37
2023-01-29T07:16:39.584Z,8.27
2023-01-29T07:19:06.106Z,9.07
2023-01-29T07:21:32.746Z,9.33
2023-01-29T07:23:59.458Z,9.07
2023-01-29T07:26:26.177Z,8.27
2023-01-29T07:28:52.780Z,8.60
2023-01-29T07:31:19.311Z,9.17
2023-01-29T07:33:46.675Z,10.37
2023-01-29T07:36:14.207Z,8.73
2023-01-29T07:38:42.194Z,9.43
2023-01-29T07:41:09.824Z,9.83
2023-01-29T07:43:36.637Z,9.20
2023-01-29T07:46:04.199Z,9.50
2023-01-29T07:48:30.702Z,9.27
2023-01-29T07:50:57.693Z,10.53
2023-01-29T07:53:24.492Z,9.87
2023-01-29T07:55:51.131Z,10.07
2023-01-29T07:58:18.432Z,9.47
2023-01-29T08:00:45.566Z,9.53
2023-01-29T08:03:19.517Z,10.47
2023-01-29T08:05:46.559Z,10.57
2023-01-29T08:08:13.601Z,9.50
2023-01-29T08:10:40.994Z,10.07
2023-01-29T08:13:08.194Z,10.97
2023-01-29T08:15:37.772Z,9.77
2023-01-29T08:18:05.237Z,9.77
2023-01-29T08:20:31.783Z,10.53
2023-01-29T08:23:02.688Z,11.30
2023-01-29T08:27:59.956Z,11.50
2023-01-29T08:30:29.171Z,9.68
2023-01-29T08:32:56.116Z,9.13
2023-01-29T08:35:23.962Z,9.47
2023-01-29T08:37:54.892Z,10.63
2023-01-29T08:42:48.005Z,10.10
2023-01-29T08:45:14.595Z,9.30
2023-01-29T08:47:49.962Z,10.53
2023-01-29T08:50:18.227Z,10.50
2023-01-29T08:52:45.849Z,11.23
2023-01-29T08:55:14.158Z,10.27
2023-01-29T08:57:40.805Z,9.70
2023-01-29T09:00:08.576Z,8.90
2023-01-29T09:02:35.566Z,9.00
2023-01-29T09:05:01.991Z,9.23
2023-01-29T09:07:29.904Z,9.10
2023-01-29T09:09:58.050Z,9.17
2023-01-29T09:12:24.635Z,9.93
2023-01-29T09:14:51.127Z,10.03
2023-01-29T09:17:17.634Z,10.40
2023-01-29T09:19:44.148Z,8.80
2023-01-29T09:22:11.865Z,10.00
2023-01-29T09:24:39.141Z,8.60
2023-01-29T09:27:05.918Z,8.93
2023-01-29T09:29:35.438Z,8.83
2023-01-29T09:32:03.910Z,9.07
2023-01-29T09:34:30.448Z,9.03
2023-01-29T09:36:57.341Z,9.43
2023-01-29T09:39:24.148Z,9.23
2023-01-29T09:42:23.275Z,8.80
2023-01-29T09:45:10.285Z,9.53
2023-01-29T09:47:37.071Z,9.73
2023-01-29T09:50:36.927Z,8.93
2023-01-29T09:53:27.728Z,9.00
2023-01-29T09:56:05.675Z,9.57
2023-01-29T09:58:38.744Z,9.10
2023-01-29T10:01:33.957Z,9.33
2023-01-29T10:04:03.735Z,7.60
2023-01-29T10:06:30.182Z,8.33
2023-01-29T10:09:28.707Z,10.17
2023-01-29T10:12:35.492Z,9.83
2023-01-29T10:15:39.398Z,9.63
2023-01-29T10:18:17.902Z,9.00
2023-01-29T10:20:56.965Z,9.00
2023-01-29T10:23:34.368Z,9.10
2023-01-29T10:26:01.122Z,9.47
2023-01-29T10:28:44.250Z,9.17
2023-01-29T10:31:15.271Z,9.00
2023-01-29T10:34:01.106Z,9.57
2023-01-29T10:36:43.805Z,8.67
2023-01-29T10:39:20.312Z,10.43
2023-01-29T10:42:19.992Z,10.00
2023-01-29T10:45:08.916Z,10.00
2023-01-29T10:48:06.471Z,11.03
2023-01-29T10:50:36.096Z,10.97
2023-01-29T10:53:21.149Z,11.27
2023-01-29T10:56:23.142Z,10.60
2023-01-29T10:59:35.165Z,10.67
2023-01-29T11:02:01.811Z,10.67
2023-01-29T11:04:31.804Z,9.37
2023-01-29T11:06:59.544Z,11.13
2023-01-29T11:10:08.191Z,13.03
2023-01-29T11:12:35.964Z,9.67
2023-01-29T11:15:19.921Z,10.70
2023-01-29T11:18:15.935Z,10.60
2023-01-29T11:20:45.737Z,10.73
2023-01-29T11:23:30.997Z,10.00
2023-01-29T11:25:59.315Z,10.67
2023-01-29T11:28:46.610Z,9.90
2023-01-29T11:31:29.294Z,10.33
2023-01-29T11:34:21.029Z,9.27
2023-01-29T11:37:00.793Z,9.53
2023-01-29T11:39:30.082Z,14.70
2023-01-29T11:41:58.159Z,15.23
2023-01-29T11:44:34.328Z,11.07
2023-01-29T11:47:18.463Z,10.77
2023-01-29T11:49:52.349Z,10.17
2023-01-29T11:52:21.955Z,11.20
2023-01-29T11:54:55.348Z,10.47
2023-01-29T11:57:36.935Z,10.43
2023-01-29T12:00:24.848Z,10.87
2023-01-29T12:03:16.904Z,10.07
2023-01-29T12:05:56.378Z,10.53
2023-01-29T12:08:24.093Z,10.50
2023-01-29T12:10:50.996Z,10.40
2023-01-29T12:13:28.119Z,10.57
2023-01-29T12:16:33.129Z,10.98
2023-01-29T12:19:28.232Z,10.57
2023-01-29T12:22:04.643Z,11.00
2023-01-29T12:24:59.671Z,11.07
2023-01-29T12:27:35.493Z,11.50
2023-01-29T12:30:29.080Z,11.33
2023-01-29T12:32:58.501Z,9.40
2023-01-29T12:35:29.638Z,8.60
2023-01-29T12:38:18.177Z,8.40
2023-01-29T12:40:51.402Z,8.93
2023-01-29T12:43:25.173Z,45.20
2023-01-29T12:45:57.976Z,10.48
2023-01-29T12:48:31.939Z,8.65
2023-01-29T12:51:19.571Z,7.57
2023-01-29T12:54:00.979Z,8.45
2023-01-29T12:56:43.383Z,8.27
2023-01-29T12:59:29.854Z,8.38
2023-01-29T13:02:10.260Z,8.20
2023-01-29T13:04:40.441Z,7.20
2023-01-29T13:07:32.097Z,10.73
2023-01-29T13:10:10.443Z,7.82
2023-01-29T13:12:39.661Z,6.15
2023-01-29T13:15:26.796Z,5.75
2023-01-29T13:18:16.678Z,8.25
2023-01-29T13:20:44.674Z,13.68
2023-01-29T13:23:22.924Z,6.85
2023-01-29T13:25:54.750Z,9.05
2023-01-29T13:28:26.644Z,5.93
2023-01-29T13:31:11.766Z,6.70
2023-01-29T13:33:40.876Z,12.55
2023-01-29T13:36:15.542Z,7.90
2023-01-29T13:38:43.483Z,8.82
2023-01-29T13:41:10.006Z,8.35
2023-01-29T13:43:43.420Z,6.88
2023-01-29T13:46:20.768Z,7.27
2023-01-29T13:48:50.296Z,6.03
2023-01-29T13:51:22.032Z,6.03
2023-01-29T13:54:03.928Z,6.40
2023-01-29T13:56:33.378Z,6.25
2023-01-29T13:59:02.235Z,6.95
2023-01-29T14:01:47.400Z,6.78
2023-01-29T14:04:28.155Z,7.32
2023-01-29T14:06:58.060Z,6.90
2023-01-29T14:09:37.337Z,6.78
2023-01-29T14:12:23.216Z,8.13
2023-01-29T14:15:21.154Z,7.17
2023-01-29T14:17:55.201Z,8.80
2023-01-29T14:20:38.668Z,7.30
2023-01-29T14:23:24.503Z,7.13
2023-01-29T14:25:51.315Z,7.07
2023-01-29T14:28:23.030Z,6.10
2023-01-29T14:30:50.468Z,7.13
2023-01-29T14:33:41.002Z,7.03
2023-01-29T14:36:15.610Z,6.83
2023-01-29T14:38:51.879Z,7.10
2023-01-29T14:41:29.324Z,6.73
2023-01-29T14:44:33.253Z,7.73
2023-01-29T14:46:59.686Z,6.77
2023-01-29T14:49:58.101Z,6.75
2023-01-29T14:52:40.690Z,7.00
2023-01-29T14:55:15.797Z,8.33
2023-01-29T14:57:43.023Z,6.63
2023-01-29T15:00:26.685Z,6.57
2023-01-29T15:03:01.631Z,6.53
2023-01-29T15:05:32.938Z,6.70
2023-01-29T15:10:50.982Z,6.97
2023-01-29T15:13:35.692Z,6.85
2023-01-29T15:16:14.762Z,6.90
2023-01-29T15:18:45.851Z,6.60
2023-01-29T15:21:14.807Z,6.50
2023-01-29T15:23:43.804Z,7.00
2023-01-29T15:26:13.366Z,6.77
2023-01-29T15:28:39.818Z,5.87
2023-01-29T15:31:15.611Z,5.90
2023-01-29T15:33:46.007Z,6.10
2023-01-29T15:36:25.495Z,6.15
2023-01-29T15:39:27.199Z,6.43
2023-01-29T15:42:14.219Z,7.17
2023-01-29T15:44:45.693Z,6.10
2023-01-29T15:47:14.172Z,6.50
2023-01-29T15:49:43.043Z,5.53
2023-01-29T15:52:18.096Z,6.27
2023-01-29T15:54:45.254Z,6.37
2023-01-29T15:57:29.494Z,7.17
2023-01-29T15:59:58.703Z,6.17
2023-01-29T16:02:43.815Z,6.47
2023-01-29T16:05:24.018Z,7.33
2023-01-29T16:07:52.308Z,6.35
2023-01-29T16:10:28.249Z,6.77
2023-01-29T16:12:55.056Z,6.40
2023-01-29T16:15:31.060Z,6.93
2023-01-29T16:17:58.375Z,7.07
2023-01-29T16:20:39.079Z,6.00
2023-01-29T16:23:07.497Z,6.50
2023-01-29T16:25:36.641Z,6.80
2023-01-29T16:28:05.384Z,7.33
2023-01-29T16:30:32.180Z,7.73
2023-01-29T16:33:11.403Z,7.10
2023-01-29T16:35:38.019Z,6.73
2023-01-29T16:38:26.167Z,7.57
2023-01-29T16:41:16.352Z,7.13
2023-01-29T16:43:56.950Z,7.05
2023-01-29T16:46:35.545Z,7.13
2023-01-29T16:49:09.895Z,7.37
2023-01-29T16:51:38.745Z,8.73
2023-01-29T16:54:12.410Z,8.20
2023-01-29T16:56:42.333Z,9.33
2023-01-29T16:59:36.834Z,10.27
2023-01-29T17:02:05.228Z,9.27
2023-01-29T17:04:33.310Z,10.23
2023-01-29T17:07:02.461Z,9.90
2023-01-29T17:09:34.898Z,10.50
2023-01-29T17:12:05.990Z,14.50
2023-01-29T17:14:34.036Z,22.77
2023-01-29T17:17:15.433Z,19.23
2023-01-29T17:19:41.871Z,19.50
2023-01-29T17:22:08.343Z,19.43
2023-01-29T17:24:34.960Z,16.53
2023-01-29T17:27:02.201Z,16.17
2023-01-29T17:29:31.595Z,14.50
2023-01-29T17:31:58.295Z,14.43
2023-01-29T17:34:26.973Z,14.23
2023-01-29T17:37:01.130Z,14.83
2023-01-29T17:39:27.685Z,15.43
2023-01-29T17:41:57.001Z,13.00
2023-01-29T17:44:25.208Z,12.60
2023-01-29T17:46:53.121Z,17.70
2023-01-29T17:49:29.664Z,14.60
2023-01-29T17:51:57.086Z,14.13
2023-01-29T17:54:24.288Z,13.20
2023-01-29T17:56:52.895Z,12.53
2023-01-29T17:59:25.602Z,13.93
2023-01-29T18:01:52.263Z,14.50
2023-01-29T18:04:19.557Z,12.73
2023-01-29T18:06:49.088Z,14.20
2023-01-29T18:09:17.818Z,14.33
2023-01-29T18:11:46.619Z,13.93
2023-01-29T18:14:14.691Z,14.20
2023-01-29T18:16:42.964Z,12.70
2023-01-29T18:19:22.569Z,14.60
2023-01-29T18:21:49.934Z,15.13
2023-01-29T18:24:16.408Z,17.17
2023-01-29T18:26:43.163Z,16.07
2023-01-29T18:29:09.850Z,17.47
2023-01-29T18:31:36.293Z,17.13
2023-01-29T18:34:03.256Z,17.93
2023-01-29T18:36:29.838Z,18.87
2023-01-29T18:38:58.328Z,16.57
2023-01-29T18:41:24.908Z,16.60
2023-01-29T18:43:51.468Z,18.60
2023-01-29T18:46:18.531Z,16.00
2023-01-29T18:48:45.043Z,17.93
2023-01-29T18:51:11.588Z,16.77
2023-01-29T18:53:38.016Z,15.80
2023-01-29T18:56:08.625Z,16.20
2023-01-29T18:58:36.790Z,17.05
2023-01-29T19:01:06.004Z,18.37
2023-01-29T19:03:32.952Z,16.63
2023-01-29T19:06:04.097Z,15.60
2023-01-29T19:08:30.874Z,16.97
2023-01-29T19:10:57.784Z,16.20
2023-01-29T19:13:24.529Z,17.97
2023-01-29T19:15:52.697Z,17.30
2023-01-29T19:18:19.211Z,18.43
2023-01-29T19:20:45.902Z,18.23
2023-01-29T19:23:12.663Z,17.30
2023-01-29T19:25:39.880Z,19.77
2023-01-29T19:28:07.072Z,17.80
2023-01-29T19:30:34.020Z,16.90
2023-01-29T19:33:01.037Z,17.70
2023-01-29T19:35:30.792Z,16.67
2023-01-29T19:37:57.297Z,17.60
2023-01-29T19:40:24.070Z,16.33
2023-01-29T19:42:54.707Z,16.37
2023-01-29T19:45:37.003Z,14.90
2023-01-29T19:48:08.717Z,16.30
2023-01-29T19:50:35.296Z,15.93
2023-01-29T19:53:01.676Z,16.20
2023-01-29T19:55:30.190Z,14.97
2023-01-29T19:57:57.625Z,16.07
2023-01-29T20:00:28.351Z,15.47
2023-01-29T20:02:56.369Z,16.33
2023-01-29T20:05:23.064Z,15.03
2023-01-29T20:07:49.681Z,16.77
2023-01-29T20:10:16.574Z,15.33
2023-01-29T20:12:46.028Z,14.73
2023-01-29T20:15:13.738Z,16.87
2023-01-29T20:17:40.305Z,16.30
2023-01-29T20:20:07.300Z,16.27
2023-01-29T20:22:33.812Z,17.43
2023-01-29T20:25:01.704Z,16.73
2023-01-29T20:27:28.256Z,18.00
2023-01-29T20:29:54.888Z,17.13
2023-01-29T20:32:21.372Z,18.10
2023-01-29T20:34:47.853Z,16.60
2023-01-29T20:37:14.341Z,16.93
2023-01-29T20:39:40.799Z,16.93
2023-01-29T20:42:08.453Z,15.03
2023-01-29T20:44:34.902Z,17.53
2023-01-29T20:47:01.950Z,17.37
2023-01-29T20:49:28.618Z,16.43
2023-01-29T20:51:55.109Z,18.43
2023-01-29T20:54:21.545Z,19.43
2023-01-29T20:56:48.238Z,29.37
2023-01-29T20:59:16.317Z,24.87
2023-01-29T21:01:43.680Z,20.37
2023-01-29T21:04:10.208Z,19.57
2023-01-29T21:06:36.712Z,17.63
2023-01-29T21:09:05.903Z,18.53
2023-01-29T21:11:32.601Z,22.13
2023-01-29T21:13:59.199Z,21.60
2023-01-29T21:16:26.378Z,21.80
2023-01-29T21:18:57.545Z,22.17
2023-01-29T21:21:24.628Z,20.20
2023-01-29T21:23:51.247Z,20.47
2023-01-29T21:26:17.936Z,20.77
2023-01-29T21:28:46.808Z,20.37
2023-01-29T21:31:15.085Z,20.00
2023-01-29T21:33:41.911Z,21.23
2023-01-29T21:36:09.454Z,21.70
2023-01-29T21:38:36.320Z,19.50
2023-01-29T21:41:05.070Z,21.50
2023-01-29T21:43:31.714Z,22.33
2023-01-29T21:46:00.888Z,21.60
2023-01-29T21:48:27.678Z,22.57
2023-01-29T21:50:54.191Z,22.43
2023-01-29T21:53:20.713Z,20.77
2023-01-29T21:55:47.439Z,22.97
2023-01-29T21:58:14.644Z,22.23
2023-01-29T22:00:41.645Z,22.37
2023-01-29T22:03:08.280Z,21.47
2023-01-29T22:05:34.872Z,19.73
2023-01-29T22:08:02.965Z,20.10
2023-01-29T22:10:29.632Z,20.63
2023-01-29T22:12:57.356Z,20.57
2023-01-29T22:15:24.797Z,21.57
2023-01-29T22:17:52.302Z,21.10
2023-01-29T22:20:19.868Z,21.07
2023-01-29T22:22:46.846Z,18.63
2023-01-29T22:25:13.429Z,19.27
2023-01-29T22:27:39.921Z,19.80
2023-01-29T22:30:07.262Z,19.93
2023-01-29T22:32:33.797Z,19.97
2023-01-29T22:35:00.540Z,19.20
2023-01-29T22:37:27.174Z,19.17
2023-01-29T22:39:53.772Z,21.47
2023-01-29T22:42:22.692Z,19.50
2023-01-29T22:44:50.207Z,19.70
2023-01-29T22:47:20.204Z,19.00
2023-01-29T22:49:48.345Z,20.63
2023-01-29T22:52:14.936Z,19.70
2023-01-29T22:54:43.366Z,20.50
2023-01-29T22:57:11.952Z,18.80
2023-01-29T22:59:41.307Z,19.90
2023-01-29T23:02:08.477Z,19.47
2023-01-29T23:04:35.225Z,20.17
2023-01-29T23:07:01.851Z,19.37
2023-01-29T23:09:28.633Z,21.40
2023-01-29T23:11:55.144Z,22.43
2023-01-29T23:14:22.643Z,22.40
2023-01-29T23:16:49.210Z,23.57
2023-01-29T23:19:15.870Z,25.57
2023-01-29T23:21:42.288Z,24.00
2023-01-29T23:24:09.478Z,23.33
2023-01-29T23:26:36.218Z,29.93
2023-01-29T23:29:02.692Z,34.23
2023-01-29T23:31:29.898Z,32.07
2023-01-29T23:33:56.427Z,31.83
2023-01-29T23:36:22.971Z,29.83
2023-01-29T23:38:49.419Z,28.57
2023-01-29T23:41:15.886Z,27.60
2023-01-29T23:43:44.516Z,26.30
2023-01-29T23:46:11.008Z,28.27
2023-01-29T23:48:37.767Z,27.03
2023-01-29T23:51:05.640Z,26.50
2023-01-29T23:53:32.179Z,28.70
2023-01-29T23:56:01.199Z,24.93
2023-01-29T23:58:28.738Z,23.77
